sensor_id;sensor_type;location;lat;lon;timestamp;P1;durP1;ratioP1;P2;durP2;ratioP2
53545;SDS011;39432;51.902;10.844;2023-02-28T00:02:30;3.33;;;1.70;;
53545;SDS011;39432;51.902;10.844;2023-02-28T00:04:59;2.97;;;1.50;;
53545;SDS011;39432;51.902;10.844;2023-02-28T00:07:29;2.75;;;1.50;;
53545;SDS011;39432;51.902;10.844;2023-02-28T00:09:59;3.35;;;1.70;;
53545;SDS011;39432;51.902;10.844;2023-02-28T00:12:31;3.95;;;1.60;;
53545;SDS011;39432;51.902;10.844;2023-02-28T00:15:01;2.85;;;1.50;;
53545;SDS011;39432;51.902;10.844;2023-02-28T00:17:32;3.97;;;1.85;;
53545;SDS011;39432;51.902;10.844;2023-02-28T00:20:02;3.13;;;1.50;;
53545;SDS011;39432;51.902;10.844;2023-02-28T00:22:34;5.00;;;1.73;;
53545;SDS011;39432;51.902;10.844;2023-02-28T00:25:04;2.60;;;1.65;;
53545;SDS011;39432;51.902;10.844;2023-02-28T00:27:38;4.32;;;1.77;;
53545;SDS011;39432;51.902;10.844;2023-02-28T00:30:10;5.03;;;1.70;;
53545;SDS011;39432;51.902;10.844;2023-02-28T00:32:42;3.28;;;1.60;;
53545;SDS011;39432;51.902;10.844;2023-02-28T00:35:12;2.60;;;1.40;;
53545;SDS011;39432;51.902;10.844;2023-02-28T00:37:42;3.05;;;1.60;;
53545;SDS011;39432;51.902;10.844;2023-02-28T00:40:12;2.60;;;1.63;;
53545;SDS011;39432;51.902;10.844;2023-02-28T00:42:44;5.60;;;1.90;;
53545;SDS011;39432;51.902;10.844;2023-02-28T00:45:14;4.07;;;1.83;;
53545;SDS011;39432;51.902;10.844;2023-02-28T00:47:43;3.75;;;1.80;;
53545;SDS011;39432;51.902;10.844;2023-02-28T00:50:17;3.05;;;1.60;;
53545;SDS011;39432;51.902;10.844;2023-02-28T00:52:47;4.10;;;1.60;;
53545;SDS011;39432;51.902;10.844;2023-02-28T00:55:17;3.03;;;1.40;;
53545;SDS011;39432;51.902;10.844;2023-02-28T00:57:49;2.53;;;1.50;;
53545;SDS011;39432;51.902;10.844;2023-02-28T01:00:19;3.00;;;1.70;;
53545;SDS011;39432;51.902;10.844;2023-02-28T01:02:49;4.32;;;1.90;;
53545;SDS011;39432;51.902;10.844;2023-02-28T01:05:19;2.80;;;1.50;;
53545;SDS011;39432;51.902;10.844;2023-02-28T01:07:48;3.35;;;1.60;;
53545;SDS011;39432;51.902;10.844;2023-02-28T01:10:18;3.15;;;1.67;;
53545;SDS011;39432;51.902;10.844;2023-02-28T01:12:50;2.70;;;1.50;;
53545;SDS011;39432;51.902;10.844;2023-02-28T01:15:20;3.60;;;2.00;;
53545;SDS011;39432;51.902;10.844;2023-02-28T01:17:50;4.25;;;1.90;;
53545;SDS011;39432;51.902;10.844;2023-02-28T01:20:21;4.75;;;2.00;;
53545;SDS011;39432;51.902;10.844;2023-02-28T01:22:50;5.05;;;1.70;;
53545;SDS011;39432;51.902;10.844;2023-02-28T01:25:20;3.90;;;1.73;;
53545;SDS011;39432;51.902;10.844;2023-02-28T01:27:53;5.20;;;1.90;;
53545;SDS011;39432;51.902;10.844;2023-02-28T01:30:23;4.03;;;1.65;;
53545;SDS011;39432;51.902;10.844;2023-02-28T01:32:52;2.90;;;1.50;;
53545;SDS011;39432;51.902;10.844;2023-02-28T01:35:24;3.10;;;1.80;;
53545;SDS011;39432;51.902;10.844;2023-02-28T01:37:54;3.35;;;1.90;;
53545;SDS011;39432;51.902;10.844;2023-02-28T01:40:37;4.07;;;1.98;;
53545;SDS011;39432;51.902;10.844;2023-02-28T01:43:12;3.38;;;1.52;;
53545;SDS011;39432;51.902;10.844;2023-02-28T01:45:49;3.08;;;1.52;;
53545;SDS011;39432;51.902;10.844;2023-02-28T01:48:19;4.97;;;1.60;;
53545;SDS011;39432;51.902;10.844;2023-02-28T01:50:53;4.53;;;1.65;;
53545;SDS011;39432;51.902;10.844;2023-02-28T01:53:29;3.42;;;1.50;;
53545;SDS011;39432;51.902;10.844;2023-02-28T01:56:04;2.72;;;1.40;;
53545;SDS011;39432;51.902;10.844;2023-02-28T01:58:39;3.05;;;1.50;;
53545;SDS011;39432;51.902;10.844;2023-02-28T02:01:09;5.05;;;1.67;;
53545;SDS011;39432;51.902;10.844;2023-02-28T02:03:48;4.05;;;1.50;;
53545;SDS011;39432;51.902;10.844;2023-02-28T02:06:24;5.28;;;1.48;;
53545;SDS011;39432;51.902;10.844;2023-02-28T02:08:57;3.40;;;1.95;;
53545;SDS011;39432;51.902;10.844;2023-02-28T02:11:27;6.88;;;2.50;;
53545;SDS011;39432;51.902;10.844;2023-02-28T02:14:03;7.00;;;2.30;;
53545;SDS011;39432;51.902;10.844;2023-02-28T02:16:59;7.93;;;3.70;;
53545;SDS011;39432;51.902;10.844;2023-02-28T02:22:54;8.20;;;3.45;;
53545;SDS011;39432;51.902;10.844;2023-02-28T02:25:43;10.27;;;4.22;;
53545;SDS011;39432;51.902;10.844;2023-02-28T02:28:22;3.78;;;1.80;;
53545;SDS011;39432;51.902;10.844;2023-02-28T02:34:31;4.20;;;2.42;;
53545;SDS011;39432;51.902;10.844;2023-02-28T02:37:13;11.02;;;3.88;;
53545;SDS011;39432;51.902;10.844;2023-02-28T02:39:52;9.07;;;3.42;;
53545;SDS011;39432;51.902;10.844;2023-02-28T02:42:28;5.72;;;3.00;;
53545;SDS011;39432;51.902;10.844;2023-02-28T02:45:10;6.40;;;2.85;;
53545;SDS011;39432;51.902;10.844;2023-02-28T02:47:45;6.82;;;2.90;;
53545;SDS011;39432;51.902;10.844;2023-02-28T02:50:19;3.90;;;1.98;;
53545;SDS011;39432;51.902;10.844;2023-02-28T02:52:57;4.15;;;2.15;;
53545;SDS011;39432;51.902;10.844;2023-02-28T02:55:32;3.17;;;2.00;;
53545;SDS011;39432;51.902;10.844;2023-02-28T02:58:07;4.25;;;1.95;;
53545;SDS011;39432;51.902;10.844;2023-02-28T03:00:42;3.50;;;2.15;;
53545;SDS011;39432;51.902;10.844;2023-02-28T03:03:16;8.03;;;2.27;;
53545;SDS011;39432;51.902;10.844;2023-02-28T03:05:58;4.18;;;2.30;;
53545;SDS011;39432;51.902;10.844;2023-02-28T03:08:33;3.38;;;1.98;;
53545;SDS011;39432;51.902;10.844;2023-02-28T03:11:04;3.50;;;2.33;;
53545;SDS011;39432;51.902;10.844;2023-02-28T03:13:46;5.63;;;2.13;;
53545;SDS011;39432;51.902;10.844;2023-02-28T03:16:49;4.75;;;2.15;;
53545;SDS011;39432;51.902;10.844;2023-02-28T03:19:39;5.03;;;2.13;;
53545;SDS011;39432;51.902;10.844;2023-02-28T03:22:26;4.63;;;2.25;;
53545;SDS011;39432;51.902;10.844;2023-02-28T03:25:20;2.97;;;1.80;;
53545;SDS011;39432;51.902;10.844;2023-02-28T03:28:00;3.70;;;1.95;;
53545;SDS011;39432;51.902;10.844;2023-02-28T03:30:36;4.03;;;2.20;;
53545;SDS011;39432;51.902;10.844;2023-02-28T03:33:14;5.15;;;2.63;;
53545;SDS011;39432;51.902;10.844;2023-02-28T03:35:50;4.43;;;2.20;;
53545;SDS011;39432;51.902;10.844;2023-02-28T03:38:26;4.88;;;2.05;;
53545;SDS011;39432;51.902;10.844;2023-02-28T03:41:01;5.75;;;2.05;;
53545;SDS011;39432;51.902;10.844;2023-02-28T03:43:35;4.85;;;2.20;;
53545;SDS011;39432;51.902;10.844;2023-02-28T03:46:11;4.47;;;2.40;;
53545;SDS011;39432;51.902;10.844;2023-02-28T03:48:49;5.07;;;2.20;;
53545;SDS011;39432;51.902;10.844;2023-02-28T03:51:23;3.88;;;2.05;;
53545;SDS011;39432;51.902;10.844;2023-02-28T03:53:59;4.22;;;2.20;;
53545;SDS011;39432;51.902;10.844;2023-02-28T03:56:37;3.65;;;1.73;;
53545;SDS011;39432;51.902;10.844;2023-02-28T03:59:10;4.18;;;2.38;;
53545;SDS011;39432;51.902;10.844;2023-02-28T04:04:16;4.20;;;2.20;;
53545;SDS011;39432;51.902;10.844;2023-02-28T04:06:49;3.72;;;2.03;;
53545;SDS011;39432;51.902;10.844;2023-02-28T04:09:22;5.18;;;2.13;;
53545;SDS011;39432;51.902;10.844;2023-02-28T04:11:52;4.53;;;2.03;;
53545;SDS011;39432;51.902;10.844;2023-02-28T04:14:22;4.90;;;1.85;;
53545;SDS011;39432;51.902;10.844;2023-02-28T04:16:51;3.92;;;2.13;;
53545;SDS011;39432;51.902;10.844;2023-02-28T04:19:21;4.55;;;2.10;;
53545;SDS011;39432;51.902;10.844;2023-02-28T04:21:51;6.28;;;2.33;;
53545;SDS011;39432;51.902;10.844;2023-02-28T04:24:25;3.00;;;1.80;;
53545;SDS011;39432;51.902;10.844;2023-02-28T04:26:57;4.57;;;2.20;;
53545;SDS011;39432;51.902;10.844;2023-02-28T04:29:28;4.10;;;2.10;;
53545;SDS011;39432;51.902;10.844;2023-02-28T04:31:59;3.92;;;2.22;;
53545;SDS011;39432;51.902;10.844;2023-02-28T04:34:30;3.72;;;2.30;;
53545;SDS011;39432;51.902;10.844;2023-02-28T04:37:01;5.38;;;1.95;;
53545;SDS011;39432;51.902;10.844;2023-02-28T04:39:41;4.75;;;2.45;;
53545;SDS011;39432;51.902;10.844;2023-02-28T04:42:12;3.85;;;2.20;;
53545;SDS011;39432;51.902;10.844;2023-02-28T04:44:42;5.55;;;1.98;;
53545;SDS011;39432;51.902;10.844;2023-02-28T04:47:11;4.85;;;2.15;;
53545;SDS011;39432;51.902;10.844;2023-02-28T04:49:41;6.10;;;2.50;;
53545;SDS011;39432;51.902;10.844;2023-02-28T04:52:10;4.78;;;2.08;;
53545;SDS011;39432;51.902;10.844;2023-02-28T04:54:43;3.85;;;2.20;;
53545;SDS011;39432;51.902;10.844;2023-02-28T04:57:12;5.25;;;2.90;;
53545;SDS011;39432;51.902;10.844;2023-02-28T04:59:42;3.97;;;2.30;;
53545;SDS011;39432;51.902;10.844;2023-02-28T05:02:11;6.85;;;3.10;;
53545;SDS011;39432;51.902;10.844;2023-02-28T05:04:41;5.20;;;2.85;;
53545;SDS011;39432;51.902;10.844;2023-02-28T05:07:11;8.77;;;5.28;;
53545;SDS011;39432;51.902;10.844;2023-02-28T05:09:43;6.07;;;2.88;;
53545;SDS011;39432;51.902;10.844;2023-02-28T05:12:13;5.97;;;3.17;;
53545;SDS011;39432;51.902;10.844;2023-02-28T05:14:42;5.20;;;2.80;;
53545;SDS011;39432;51.902;10.844;2023-02-28T05:17:12;5.63;;;2.63;;
53545;SDS011;39432;51.902;10.844;2023-02-28T05:19:41;4.75;;;2.53;;
53545;SDS011;39432;51.902;10.844;2023-02-28T05:22:14;4.47;;;2.42;;
53545;SDS011;39432;51.902;10.844;2023-02-28T05:24:48;5.70;;;2.38;;
53545;SDS011;39432;51.902;10.844;2023-02-28T05:27:17;4.82;;;2.80;;
53545;SDS011;39432;51.902;10.844;2023-02-28T05:29:47;5.32;;;2.80;;
53545;SDS011;39432;51.902;10.844;2023-02-28T05:32:17;6.35;;;2.97;;
53545;SDS011;39432;51.902;10.844;2023-02-28T05:34:47;4.00;;;2.30;;
53545;SDS011;39432;51.902;10.844;2023-02-28T05:37:16;3.53;;;2.47;;
53545;SDS011;39432;51.902;10.844;2023-02-28T05:39:50;3.90;;;2.30;;
53545;SDS011;39432;51.902;10.844;2023-02-28T05:42:20;6.03;;;2.33;;
53545;SDS011;39432;51.902;10.844;2023-02-28T05:44:49;3.80;;;2.30;;
53545;SDS011;39432;51.902;10.844;2023-02-28T05:47:19;5.13;;;3.13;;
53545;SDS011;39432;51.902;10.844;2023-02-28T05:49:49;4.07;;;2.60;;
53545;SDS011;39432;51.902;10.844;2023-02-28T05:52:18;5.03;;;2.50;;
53545;SDS011;39432;51.902;10.844;2023-02-28T05:54:50;4.72;;;2.35;;
53545;SDS011;39432;51.902;10.844;2023-02-28T05:57:20;4.57;;;3.05;;
53545;SDS011;39432;51.902;10.844;2023-02-28T05:59:50;5.32;;;3.20;;
53545;SDS011;39432;51.902;10.844;2023-02-28T06:02:20;5.38;;;2.65;;
53545;SDS011;39432;51.902;10.844;2023-02-28T06:04:50;4.03;;;2.65;;
53545;SDS011;39432;51.902;10.844;2023-02-28T06:07:19;6.10;;;3.00;;
53545;SDS011;39432;51.902;10.844;2023-02-28T06:09:52;6.00;;;3.45;;
53545;SDS011;39432;51.902;10.844;2023-02-28T06:12:21;6.95;;;2.80;;
53545;SDS011;39432;51.902;10.844;2023-02-28T06:14:51;4.15;;;2.55;;
53545;SDS011;39432;51.902;10.844;2023-02-28T06:17:20;4.20;;;2.53;;
53545;SDS011;39432;51.902;10.844;2023-02-28T06:19:50;5.10;;;3.00;;
53545;SDS011;39432;51.902;10.844;2023-02-28T06:22:20;8.15;;;3.10;;
53545;SDS011;39432;51.902;10.844;2023-02-28T06:24:52;5.75;;;2.88;;
53545;SDS011;39432;51.902;10.844;2023-02-28T06:27:23;5.80;;;2.80;;
53545;SDS011;39432;51.902;10.844;2023-02-28T06:29:53;4.93;;;2.47;;
53545;SDS011;39432;51.902;10.844;2023-02-28T06:32:23;10.73;;;3.20;;
53545;SDS011;39432;51.902;10.844;2023-02-28T06:34:53;8.65;;;4.43;;
53545;SDS011;39432;51.902;10.844;2023-02-28T06:37:24;6.30;;;3.45;;
53545;SDS011;39432;51.902;10.844;2023-02-28T06:39:57;13.40;;;5.97;;
53545;SDS011;39432;51.902;10.844;2023-02-28T06:42:27;8.23;;;4.57;;
53545;SDS011;39432;51.902;10.844;2023-02-28T06:44:58;6.75;;;3.33;;
53545;SDS011;39432;51.902;10.844;2023-02-28T06:47:30;7.15;;;3.40;;
53545;SDS011;39432;51.902;10.844;2023-02-28T06:50:00;6.55;;;3.75;;
53545;SDS011;39432;51.902;10.844;2023-02-28T06:52:30;10.15;;;4.50;;
53545;SDS011;39432;51.902;10.844;2023-02-28T06:55:06;5.30;;;2.92;;
53545;SDS011;39432;51.902;10.844;2023-02-28T06:57:37;19.65;;;8.57;;
53545;SDS011;39432;51.902;10.844;2023-02-28T07:00:08;6.20;;;3.55;;
53545;SDS011;39432;51.902;10.844;2023-02-28T07:02:39;8.48;;;2.70;;
53545;SDS011;39432;51.902;10.844;2023-02-28T07:05:08;6.57;;;2.45;;
53545;SDS011;39432;51.902;10.844;2023-02-28T07:07:38;8.45;;;3.00;;
53545;SDS011;39432;51.902;10.844;2023-02-28T07:10:13;7.32;;;3.22;;
53545;SDS011;39432;51.902;10.844;2023-02-28T07:12:45;7.07;;;4.45;;
53545;SDS011;39432;51.902;10.844;2023-02-28T07:15:15;11.48;;;5.72;;
53545;SDS011;39432;51.902;10.844;2023-02-28T07:17:45;11.95;;;5.65;;
53545;SDS011;39432;51.902;10.844;2023-02-28T07:20:15;21.45;;;8.05;;
53545;SDS011;39432;51.902;10.844;2023-02-28T07:22:45;21.45;;;9.43;;
53545;SDS011;39432;51.902;10.844;2023-02-28T07:25:24;9.35;;;4.55;;
53545;SDS011;39432;51.902;10.844;2023-02-28T07:27:55;6.72;;;2.83;;
53545;SDS011;39432;51.902;10.844;2023-02-28T07:30:26;2.97;;;2.00;;
53545;SDS011;39432;51.902;10.844;2023-02-28T07:32:56;4.15;;;1.90;;
53545;SDS011;39432;51.902;10.844;2023-02-28T07:35:25;3.50;;;2.25;;
53545;SDS011;39432;51.902;10.844;2023-02-28T07:37:57;2.85;;;1.77;;
53545;SDS011;39432;51.902;10.844;2023-02-28T07:40:29;4.80;;;2.22;;
53545;SDS011;39432;51.902;10.844;2023-02-28T07:42:59;7.32;;;2.10;;
53545;SDS011;39432;51.902;10.844;2023-02-28T07:45:30;5.50;;;2.95;;
53545;SDS011;39432;51.902;10.844;2023-02-28T07:48:01;3.72;;;1.98;;
53545;SDS011;39432;51.902;10.844;2023-02-28T07:50:31;3.88;;;2.10;;
53545;SDS011;39432;51.902;10.844;2023-02-28T07:53:01;4.47;;;2.38;;
53545;SDS011;39432;51.902;10.844;2023-02-28T07:55:33;4.40;;;2.03;;
53545;SDS011;39432;51.902;10.844;2023-02-28T07:58:03;4.25;;;2.25;;
53545;SDS011;39432;51.902;10.844;2023-02-28T08:00:32;6.00;;;2.50;;
53545;SDS011;39432;51.902;10.844;2023-02-28T08:03:02;4.28;;;2.35;;
53545;SDS011;39432;51.902;10.844;2023-02-28T08:05:32;4.38;;;2.10;;
53545;SDS011;39432;51.902;10.844;2023-02-28T08:08:02;6.88;;;1.90;;
53545;SDS011;39432;51.902;10.844;2023-02-28T08:10:34;6.55;;;1.77;;
53545;SDS011;39432;51.902;10.844;2023-02-28T08:13:04;3.58;;;2.33;;
53545;SDS011;39432;51.902;10.844;2023-02-28T08:15:33;5.25;;;2.00;;
53545;SDS011;39432;51.902;10.844;2023-02-28T08:18:03;4.68;;;2.38;;
53545;SDS011;39432;51.902;10.844;2023-02-28T08:20:36;6.20;;;2.85;;
53545;SDS011;39432;51.902;10.844;2023-02-28T08:23:06;4.57;;;2.35;;
53545;SDS011;39432;51.902;10.844;2023-02-28T08:25:38;5.20;;;2.78;;
53545;SDS011;39432;51.902;10.844;2023-02-28T08:28:08;5.28;;;2.33;;
53545;SDS011;39432;51.902;10.844;2023-02-28T08:30:37;3.67;;;2.08;;
53545;SDS011;39432;51.902;10.844;2023-02-28T08:33:07;3.80;;;2.25;;
53545;SDS011;39432;51.902;10.844;2023-02-28T08:35:37;14.77;;;2.92;;
53545;SDS011;39432;51.902;10.844;2023-02-28T08:38:06;4.57;;;2.50;;
53545;SDS011;39432;51.902;10.844;2023-02-28T08:40:39;4.57;;;2.40;;
53545;SDS011;39432;51.902;10.844;2023-02-28T08:43:09;8.05;;;2.67;;
53545;SDS011;39432;51.902;10.844;2023-02-28T08:45:38;5.18;;;2.40;;
53545;SDS011;39432;51.902;10.844;2023-02-28T08:48:08;4.10;;;2.45;;
53545;SDS011;39432;51.902;10.844;2023-02-28T08:50:38;5.68;;;3.22;;
53545;SDS011;39432;51.902;10.844;2023-02-28T08:53:09;7.50;;;3.33;;
53545;SDS011;39432;51.902;10.844;2023-02-28T08:55:41;5.15;;;2.45;;
53545;SDS011;39432;51.902;10.844;2023-02-28T08:58:11;6.03;;;2.30;;
53545;SDS011;39432;51.902;10.844;2023-02-28T09:00:41;4.40;;;2.50;;
53545;SDS011;39432;51.902;10.844;2023-02-28T09:03:10;7.05;;;2.53;;
53545;SDS011;39432;51.902;10.844;2023-02-28T09:05:40;6.90;;;2.83;;
53545;SDS011;39432;51.902;10.844;2023-02-28T09:08:10;3.60;;;2.40;;
53545;SDS011;39432;51.902;10.844;2023-02-28T09:10:42;5.20;;;2.72;;
53545;SDS011;39432;51.902;10.844;2023-02-28T09:13:11;5.07;;;2.25;;
53545;SDS011;39432;51.902;10.844;2023-02-28T09:15:41;13.18;;;2.85;;
53545;SDS011;39432;51.902;10.844;2023-02-28T09:18:11;4.40;;;2.20;;
53545;SDS011;39432;51.902;10.844;2023-02-28T09:20:41;4.82;;;2.20;;
53545;SDS011;39432;51.902;10.844;2023-02-28T09:23:12;5.95;;;2.30;;
53545;SDS011;39432;51.902;10.844;2023-02-28T09:25:48;3.33;;;2.28;;
53545;SDS011;39432;51.902;10.844;2023-02-28T09:28:18;5.05;;;1.90;;
53545;SDS011;39432;51.902;10.844;2023-02-28T09:30:49;7.82;;;2.35;;
53545;SDS011;39432;51.902;10.844;2023-02-28T09:33:21;5.55;;;2.22;;
53545;SDS011;39432;51.902;10.844;2023-02-28T09:35:52;4.18;;;2.38;;
53545;SDS011;39432;51.902;10.844;2023-02-28T09:38:27;4.93;;;2.05;;
53545;SDS011;39432;51.902;10.844;2023-02-28T09:41:01;6.18;;;2.28;;
53545;SDS011;39432;51.902;10.844;2023-02-28T09:43:33;6.78;;;2.42;;
53545;SDS011;39432;51.902;10.844;2023-02-28T09:46:06;5.18;;;2.08;;
53545;SDS011;39432;51.902;10.844;2023-02-28T09:48:44;4.60;;;1.98;;
53545;SDS011;39432;51.902;10.844;2023-02-28T09:51:23;6.55;;;2.97;;
53545;SDS011;39432;51.902;10.844;2023-02-28T09:53:59;6.28;;;4.35;;
53545;SDS011;39432;51.902;10.844;2023-02-28T09:56:33;4.22;;;2.13;;
53545;SDS011;39432;51.902;10.844;2023-02-28T09:59:07;6.22;;;1.95;;
53545;SDS011;39432;51.902;10.844;2023-02-28T10:01:46;2.67;;;1.42;;
53545;SDS011;39432;51.902;10.844;2023-02-28T10:04:28;4.15;;;1.60;;
53545;SDS011;39432;51.902;10.844;2023-02-28T10:07:13;6.50;;;1.63;;
53545;SDS011;39432;51.902;10.844;2023-02-28T10:09:52;4.43;;;1.13;;
53545;SDS011;39432;51.902;10.844;2023-02-28T10:12:27;3.38;;;1.42;;
53545;SDS011;39432;51.902;10.844;2023-02-28T10:14:59;3.67;;;1.67;;
53545;SDS011;39432;51.902;10.844;2023-02-28T10:17:32;5.18;;;1.77;;
53545;SDS011;39432;51.902;10.844;2023-02-28T10:20:26;2.70;;;1.20;;
53545;SDS011;39432;51.902;10.844;2023-02-28T10:23:00;4.82;;;2.30;;
53545;SDS011;39432;51.902;10.844;2023-02-28T10:25:35;6.25;;;2.13;;
53545;SDS011;39432;51.902;10.844;2023-02-28T10:28:12;3.80;;;1.80;;
53545;SDS011;39432;51.902;10.844;2023-02-28T10:30:45;4.75;;;1.92;;
53545;SDS011;39432;51.902;10.844;2023-02-28T10:33:18;2.75;;;1.58;;
53545;SDS011;39432;51.902;10.844;2023-02-28T10:35:51;4.70;;;1.83;;
53545;SDS011;39432;51.902;10.844;2023-02-28T10:38:22;8.02;;;1.73;;
53545;SDS011;39432;51.902;10.844;2023-02-28T10:41:03;5.93;;;1.98;;
53545;SDS011;39432;51.902;10.844;2023-02-28T10:43:36;2.97;;;1.60;;
53545;SDS011;39432;51.902;10.844;2023-02-28T10:46:11;5.20;;;2.00;;
53545;SDS011;39432;51.902;10.844;2023-02-28T10:49:00;4.30;;;1.95;;
53545;SDS011;39432;51.902;10.844;2023-02-28T10:51:37;3.65;;;2.00;;
53545;SDS011;39432;51.902;10.844;2023-02-28T10:54:15;3.97;;;2.08;;
53545;SDS011;39432;51.902;10.844;2023-02-28T10:56:46;5.63;;;1.60;;
53545;SDS011;39432;51.902;10.844;2023-02-28T10:59:38;5.30;;;1.50;;
53545;SDS011;39432;51.902;10.844;2023-02-28T11:05:26;3.45;;;1.55;;
53545;SDS011;39432;51.902;10.844;2023-02-28T11:07:59;3.50;;;1.40;;
53545;SDS011;39432;51.902;10.844;2023-02-28T11:10:35;2.88;;;1.40;;
53545;SDS011;39432;51.902;10.844;2023-02-28T11:13:05;3.97;;;1.65;;
53545;SDS011;39432;51.902;10.844;2023-02-28T11:15:38;3.03;;;1.60;;
53545;SDS011;39432;51.902;10.844;2023-02-28T11:18:18;6.07;;;1.90;;
53545;SDS011;39432;51.902;10.844;2023-02-28T11:20:53;2.50;;;1.63;;
53545;SDS011;39432;51.902;10.844;2023-02-28T11:23:25;4.20;;;2.22;;
53545;SDS011;39432;51.902;10.844;2023-02-28T11:25:59;3.20;;;1.80;;
53545;SDS011;39432;51.902;10.844;2023-02-28T11:28:32;11.50;;;2.05;;
53545;SDS011;39432;51.902;10.844;2023-02-28T11:31:14;5.13;;;2.00;;
53545;SDS011;39432;51.902;10.844;2023-02-28T11:33:49;4.68;;;1.65;;
53545;SDS011;39432;51.902;10.844;2023-02-28T11:36:20;5.93;;;2.13;;
53545;SDS011;39432;51.902;10.844;2023-02-28T11:38:54;5.25;;;2.03;;
53545;SDS011;39432;51.902;10.844;2023-02-28T11:41:31;5.37;;;1.60;;
53545;SDS011;39432;51.902;10.844;2023-02-28T11:44:13;3.65;;;1.95;;
53545;SDS011;39432;51.902;10.844;2023-02-28T11:47:06;3.92;;;1.90;;
53545;SDS011;39432;51.902;10.844;2023-02-28T11:49:45;14.18;;;5.32;;
53545;SDS011;39432;51.902;10.844;2023-02-28T11:52:24;6.00;;;2.30;;
53545;SDS011;39432;51.902;10.844;2023-02-28T11:55:08;2.88;;;1.65;;
53545;SDS011;39432;51.902;10.844;2023-02-28T11:57:49;4.35;;;2.08;;
53545;SDS011;39432;51.902;10.844;2023-02-28T12:00:40;4.18;;;2.08;;
53545;SDS011;39432;51.902;10.844;2023-02-28T12:03:26;3.45;;;1.83;;
53545;SDS011;39432;51.902;10.844;2023-02-28T12:06:04;4.85;;;1.77;;
53545;SDS011;39432;51.902;10.844;2023-02-28T12:08:47;5.95;;;2.28;;
53545;SDS011;39432;51.902;10.844;2023-02-28T12:11:30;4.75;;;1.70;;
53545;SDS011;39432;51.902;10.844;2023-02-28T12:17:08;3.30;;;1.83;;
53545;SDS011;39432;51.902;10.844;2023-02-28T12:19:52;6.05;;;2.00;;
53545;SDS011;39432;51.902;10.844;2023-02-28T12:22:30;3.53;;;2.13;;
53545;SDS011;39432;51.902;10.844;2023-02-28T12:28:08;4.37;;;2.30;;
53545;SDS011;39432;51.902;10.844;2023-02-28T12:30:39;5.00;;;1.98;;
53545;SDS011;39432;51.902;10.844;2023-02-28T12:33:16;3.42;;;1.80;;
53545;SDS011;39432;51.902;10.844;2023-02-28T12:35:55;4.35;;;2.10;;
53545;SDS011;39432;51.902;10.844;2023-02-28T12:38:27;5.53;;;2.08;;
53545;SDS011;39432;51.902;10.844;2023-02-28T12:41:03;4.13;;;2.08;;
53545;SDS011;39432;51.902;10.844;2023-02-28T12:43:40;5.80;;;2.08;;
53545;SDS011;39432;51.902;10.844;2023-02-28T12:46:14;3.70;;;1.65;;
53545;SDS011;39432;51.902;10.844;2023-02-28T12:51:26;4.63;;;2.10;;
53545;SDS011;39432;51.902;10.844;2023-02-28T12:53:59;3.38;;;1.75;;
53545;SDS011;39432;51.902;10.844;2023-02-28T12:56:38;5.85;;;1.92;;
53545;SDS011;39432;51.902;10.844;2023-02-28T12:59:14;5.80;;;2.17;;
53545;SDS011;39432;51.902;10.844;2023-02-28T13:01:56;6.75;;;2.15;;
53545;SDS011;39432;51.902;10.844;2023-02-28T13:04:44;3.47;;;2.08;;
53545;SDS011;39432;51.902;10.844;2023-02-28T13:10:24;3.33;;;1.75;;
53545;SDS011;39432;51.902;10.844;2023-02-28T13:13:11;3.30;;;1.80;;
53545;SDS011;39432;51.902;10.844;2023-02-28T13:16:00;5.00;;;1.80;;
53545;SDS011;39432;51.902;10.844;2023-02-28T13:18:34;4.40;;;2.00;;
53545;SDS011;39432;51.902;10.844;2023-02-28T13:21:06;3.25;;;2.05;;
53545;SDS011;39432;51.902;10.844;2023-02-28T13:29:30;5.25;;;2.25;;
53545;SDS011;39432;51.902;10.844;2023-02-28T13:38:09;4.45;;;2.30;;
53545;SDS011;39432;51.902;10.844;2023-02-28T13:40:48;8.57;;;2.25;;
53545;SDS011;39432;51.902;10.844;2023-02-28T13:43:18;5.03;;;2.30;;
53545;SDS011;39432;51.902;10.844;2023-02-28T13:46:08;5.28;;;2.30;;
53545;SDS011;39432;51.902;10.844;2023-02-28T13:48:41;5.13;;;3.00;;
53545;SDS011;39432;51.902;10.844;2023-02-28T13:57:11;20.35;;;3.92;;
53545;SDS011;39432;51.902;10.844;2023-02-28T13:59:55;6.35;;;2.40;;
53545;SDS011;39432;51.902;10.844;2023-02-28T14:02:42;6.57;;;2.60;;
53545;SDS011;39432;51.902;10.844;2023-02-28T14:05:20;5.72;;;2.45;;
53545;SDS011;39432;51.902;10.844;2023-02-28T14:07:53;4.22;;;2.78;;
53545;SDS011;39432;51.902;10.844;2023-02-28T14:10:26;4.35;;;2.45;;
53545;SDS011;39432;51.902;10.844;2023-02-28T14:13:02;12.10;;;4.90;;
53545;SDS011;39432;51.902;10.844;2023-02-28T14:15:41;10.93;;;2.97;;
53545;SDS011;39432;51.902;10.844;2023-02-28T14:18:20;5.95;;;2.63;;
53545;SDS011;39432;51.902;10.844;2023-02-28T14:20:54;6.55;;;3.05;;
53545;SDS011;39432;51.902;10.844;2023-02-28T14:32:59;4.20;;;2.53;;
53545;SDS011;39432;51.902;10.844;2023-02-28T14:35:51;4.35;;;2.60;;
53545;SDS011;39432;51.902;10.844;2023-02-28T14:38:37;5.30;;;2.92;;
53545;SDS011;39432;51.902;10.844;2023-02-28T14:41:14;7.78;;;3.08;;
53545;SDS011;39432;51.902;10.844;2023-02-28T14:43:48;4.82;;;2.88;;
53545;SDS011;39432;51.902;10.844;2023-02-28T14:46:22;6.03;;;3.03;;
53545;SDS011;39432;51.902;10.844;2023-02-28T14:48:56;5.65;;;2.65;;
53545;SDS011;39432;51.902;10.844;2023-02-28T14:51:26;4.13;;;2.60;;
53545;SDS011;39432;51.902;10.844;2023-02-28T14:53:58;4.15;;;2.72;;
53545;SDS011;39432;51.902;10.844;2023-02-28T14:56:33;4.55;;;2.42;;
53545;SDS011;39432;51.902;10.844;2023-02-28T14:59:05;5.38;;;2.25;;
53545;SDS011;39432;51.902;10.844;2023-02-28T15:01:54;4.68;;;2.88;;
53545;SDS011;39432;51.902;10.844;2023-02-28T15:04:53;5.72;;;2.47;;
53545;SDS011;39432;51.902;10.844;2023-02-28T15:07:24;6.07;;;2.65;;
53545;SDS011;39432;51.902;10.844;2023-02-28T15:10:11;4.07;;;2.35;;
53545;SDS011;39432;51.902;10.844;2023-02-28T15:12:49;19.77;;;3.05;;
53545;SDS011;39432;51.902;10.844;2023-02-28T15:15:23;7.43;;;2.75;;
53545;SDS011;39432;51.902;10.844;2023-02-28T15:18:10;5.82;;;2.65;;
53545;SDS011;39432;51.902;10.844;2023-02-28T15:20:45;4.03;;;2.28;;
53545;SDS011;39432;51.902;10.844;2023-02-28T15:23:15;13.57;;;3.08;;
53545;SDS011;39432;51.902;10.844;2023-02-28T15:25:45;5.70;;;2.40;;
53545;SDS011;39432;51.902;10.844;2023-02-28T15:28:17;3.95;;;2.38;;
53545;SDS011;39432;51.902;10.844;2023-02-28T15:30:53;4.55;;;2.47;;
53545;SDS011;39432;51.902;10.844;2023-02-28T15:33:28;6.95;;;2.20;;
53545;SDS011;39432;51.902;10.844;2023-02-28T15:36:10;4.75;;;2.75;;
53545;SDS011;39432;51.902;10.844;2023-02-28T15:38:44;4.40;;;2.45;;
53545;SDS011;39432;51.902;10.844;2023-02-28T15:41:21;7.00;;;2.40;;
53545;SDS011;39432;51.902;10.844;2023-02-28T15:47:00;5.13;;;2.55;;
53545;SDS011;39432;51.902;10.844;2023-02-28T15:52:13;4.22;;;2.17;;
53545;SDS011;39432;51.902;10.844;2023-02-28T15:54:45;6.03;;;2.40;;
53545;SDS011;39432;51.902;10.844;2023-02-28T15:57:17;5.53;;;1.92;;
53545;SDS011;39432;51.902;10.844;2023-02-28T15:59:50;6.05;;;2.90;;
53545;SDS011;39432;51.902;10.844;2023-02-28T16:02:29;4.38;;;2.50;;
53545;SDS011;39432;51.902;10.844;2023-02-28T16:05:13;4.22;;;2.25;;
53545;SDS011;39432;51.902;10.844;2023-02-28T16:07:55;4.07;;;2.28;;
53545;SDS011;39432;51.902;10.844;2023-02-28T16:10:25;5.25;;;2.28;;
53545;SDS011;39432;51.902;10.844;2023-02-28T16:12:57;3.95;;;2.05;;